sensor_id;sensor_type;location;lat;lon;timestamp;temperature;humidity
16838;DHT22;19510;54.486;9.046;2023-03-16T06:48:35;3.40;99.90
16838;DHT22;19510;54.486;9.046;2023-03-16T06:51:01;3.40;99.90
16838;DHT22;19510;54.486;9.046;2023-03-16T06:53:27;3.40;99.90
16838;DHT22;19510;54.486;9.046;2023-03-16T06:55:52;3.50;99.90
16838;DHT22;19510;54.486;9.046;2023-03-16T06:58:18;3.40;99.90
16838;DHT22;19510;54.486;9.046;2023-03-16T07:00:44;3.50;99.90
16838;DHT22;19510;54.486;9.046;2023-03-16T07:03:10;3.50;99.90
16838;DHT22;19510;54.486;9.046;2023-03-16T07:05:36;3.50;99.90
16838;DHT22;19510;54.486;9.046;2023-03-16T07:08:08;3.50;99.90
16838;DHT22;19510;54.486;9.046;2023-03-16T07:10:34;3.50;99.90
16838;DHT22;19510;54.486;9.046;2023-03-16T07:13:00;3.60;99.90
16838;DHT22;19510;54.486;9.046;2023-03-16T07:15:26;3.60;99.90
16838;DHT22;19510;54.486;9.046;2023-03-16T07:17:52;3.60;99.90
16838;DHT22;19510;54.486;9.046;2023-03-16T07:20:17;3.60;99.90
16838;DHT22;19510;54.486;9.046;2023-03-16T07:22:44;3.60;99.90
16838;DHT22;19510;54.486;9.046;2023-03-16T07:25:10;3.70;99.90
16838;DHT22;19510;54.486;9.046;2023-03-16T07:27:36;3.70;99.90
16838;DHT22;19510;54.486;9.046;2023-03-16T07:30:03;3.80;99.90
16838;DHT22;19510;54.486;9.046;2023-03-16T07:32:30;3.80;99.90
16838;DHT22;19510;54.486;9.046;2023-03-16T07:34:57;3.80;99.90
16838;DHT22;19510;54.486;9.046;2023-03-16T07:37:23;3.90;99.90
16838;DHT22;19510;54.486;9.046;2023-03-16T07:39:51;4.00;99.90
16838;DHT22;19510;54.486;9.046;2023-03-16T07:42:17;4.00;99.90
16838;DHT22;19510;54.486;9.046;2023-03-16T07:44:44;4.10;99.90
16838;DHT22;19510;54.486;9.046;2023-03-16T07:47:13;4.10;99.90
16838;DHT22;19510;54.486;9.046;2023-03-16T07:49:41;4.20;99.90
16838;DHT22;19510;54.486;9.046;2023-03-16T07:52:07;4.20;99.90
16838;DHT22;19510;54.486;9.046;2023-03-16T07:54:32;4.30;99.90
16838;DHT22;19510;54.486;9.046;2023-03-16T07:56:58;4.30;99.90
16838;DHT22;19510;54.486;9.046;2023-03-16T07:59:24;4.30;99.90
16838;DHT22;19510;54.486;9.046;2023-03-16T08:01:49;4.30;99.90
16838;DHT22;19510;54.486;9.046;2023-03-16T08:04:15;4.30;99.90
16838;DHT22;19510;54.486;9.046;2023-03-16T08:06:41;4.40;99.90
16838;DHT22;19510;54.486;9.046;2023-03-16T08:09:07;4.40;99.90
16838;DHT22;19510;54.486;9.046;2023-03-16T08:11:33;4.40;99.90
16838;DHT22;19510;54.486;9.046;2023-03-16T08:14:04;4.50;99.90
16838;DHT22;19510;54.486;9.046;2023-03-16T08:16:30;4.50;99.90
16838;DHT22;19510;54.486;9.046;2023-03-16T08:18:56;4.60;99.90
16838;DHT22;19510;54.486;9.046;2023-03-16T08:21:37;4.60;99.90
16838;DHT22;19510;54.486;9.046;2023-03-16T08:24:20;4.60;99.90
16838;DHT22;19510;54.486;9.046;2023-03-16T08:26:48;4.70;99.90
16838;DHT22;19510;54.486;9.046;2023-03-16T08:29:14;4.80;99.90
16838;DHT22;19510;54.486;9.046;2023-03-16T08:31:40;4.80;99.90
16838;DHT22;19510;54.486;9.046;2023-03-16T08:34:07;4.90;99.90
16838;DHT22;19510;54.486;9.046;2023-03-16T08:36:35;4.90;99.90
16838;DHT22;19510;54.486;9.046;2023-03-16T08:42:04;5.00;99.90
16838;DHT22;19510;54.486;9.046;2023-03-16T08:44:33;5.00;99.90
16838;DHT22;19510;54.486;9.046;2023-03-16T08:47:01;5.10;99.90
16838;DHT22;19510;54.486;9.046;2023-03-16T08:49:28;5.10;99.90
16838;DHT22;19510;54.486;9.046;2023-03-16T08:52:02;5.20;99.90
16838;DHT22;19510;54.486;9.046;2023-03-16T08:54:30;5.20;99.90
16838;DHT22;19510;54.486;9.046;2023-03-16T08:56:57;5.20;99.90
16838;DHT22;19510;54.486;9.046;2023-03-16T08:59:22;5.30;99.90
16838;DHT22;19510;54.486;9.046;2023-03-16T09:01:51;5.40;99.90
16838;DHT22;19510;54.486;9.046;2023-03-16T09:04:17;5.40;99.90
16838;DHT22;19510;54.486;9.046;2023-03-16T09:06:43;5.50;99.90
16838;DHT22;19510;54.486;9.046;2023-03-16T09:09:09;5.60;99.90
16838;DHT22;19510;54.486;9.046;2023-03-16T09:14:48;5.80;99.90
16838;DHT22;19510;54.486;9.046;2023-03-16T09:17:13;5.90;99.90
16838;DHT22;19510;54.486;9.046;2023-03-16T09:19:39;5.90;99.90
16838;DHT22;19510;54.486;9.046;2023-03-16T09:22:05;6.00;99.90
16838;DHT22;19510;54.486;9.046;2023-03-16T09:24:33;6.00;99.90
16838;DHT22;19510;54.486;9.046;2023-03-16T09:26:59;6.10;99.90
16838;DHT22;19510;54.486;9.046;2023-03-16T09:29:25;6.20;99.90
16838;DHT22;19510;54.486;9.046;2023-03-16T09:31:50;6.30;99.90
16838;DHT22;19510;54.486;9.046;2023-03-16T09:34:16;6.40;99.90
16838;DHT22;19510;54.486;9.046;2023-03-16T09:36:42;6.50;99.90
16838;DHT22;19510;54.486;9.046;2023-03-16T09:39:08;6.50;99.90
16838;DHT22;19510;54.486;9.046;2023-03-16T09:46:57;6.60;99.90
16838;DHT22;19510;54.486;9.046;2023-03-16T09:49:27;6.70;99.90
16838;DHT22;19510;54.486;9.046;2023-03-16T09:55:09;6.80;99.90
16838;DHT22;19510;54.486;9.046;2023-03-16T10:12:53;6.70;99.90
16838;DHT22;19510;54.486;9.046;2023-03-16T10:15:25;6.70;99.90
16838;DHT22;19510;54.486;9.046;2023-03-16T10:18:16;6.70;99.90
16838;DHT22;19510;54.486;9.046;2023-03-16T10:20:43;6.70;99.90
16838;DHT22;19510;54.486;9.046;2023-03-16T10:23:20;6.80;99.90
16838;DHT22;19510;54.486;9.046;2023-03-16T10:25:49;6.80;99.90
16838;DHT22;19510;54.486;9.046;2023-03-16T10:28:20;6.90;99.90
16838;DHT22;19510;54.486;9.046;2023-03-16T10:30:57;7.00;99.90
16838;DHT22;19510;54.486;9.046;2023-03-16T10:33:28;7.10;99.90
16838;DHT22;19510;54.486;9.046;2023-03-16T10:40:58;7.10;99.90
16838;DHT22;19510;54.486;9.046;2023-03-16T10:43:25;7.20;99.90
16838;DHT22;19510;54.486;9.046;2023-03-16T10:45:58;7.20;99.90
16838;DHT22;19510;54.486;9.046;2023-03-16T10:48:26;7.20;99.90
16838;DHT22;19510;54.486;9.046;2023-03-16T10:50:56;7.10;99.90
16838;DHT22;19510;54.486;9.046;2023-03-16T10:53:28;7.20;99.90
16838;DHT22;19510;54.486;9.046;2023-03-16T10:55:59;7.20;99.90
16838;DHT22;19510;54.486;9.046;2023-03-16T10:58:32;7.20;99.90
16838;DHT22;19510;54.486;9.046;2023-03-16T11:01:02;7.30;99.90
16838;DHT22;19510;54.486;9.046;2023-03-16T11:03:39;7.30;99.90
16838;DHT22;19510;54.486;9.046;2023-03-16T11:06:14;7.30;99.90
16838;DHT22;19510;54.486;9.046;2023-03-16T11:08:42;7.40;99.90
16838;DHT22;19510;54.486;9.046;2023-03-16T11:11:28;7.30;99.90
16838;DHT22;19510;54.486;9.046;2023-03-16T11:14:13;7.40;99.90
16838;DHT22;19510;54.486;9.046;2023-03-16T11:17:20;7.40;99.90
16838;DHT22;19510;54.486;9.046;2023-03-16T11:19:57;7.40;99.90
16838;DHT22;19510;54.486;9.046;2023-03-16T11:22:25;7.40;99.90
16838;DHT22;19510;54.486;9.046;2023-03-16T11:25:05;7.50;99.90
16838;DHT22;19510;54.486;9.046;2023-03-16T11:27:43;7.50;99.90
16838;DHT22;19510;54.486;9.046;2023-03-16T11:32:50;7.60;99.90
16838;DHT22;19510;54.486;9.046;2023-03-16T11:38:19;7.80;99.90
16838;DHT22;19510;54.486;9.046;2023-03-16T11:40:53;7.80;99.90
16838;DHT22;19510;54.486;9.046;2023-03-16T11:43:52;7.90;99.90
16838;DHT22;19510;54.486;9.046;2023-03-16T12:00:19;8.40;99.90
16838;DHT22;19510;54.486;9.046;2023-03-16T12:02:39;8.50;99.90
16838;DHT22;19510;54.486;9.046;2023-03-16T12:10:49;8.60;99.90
16838;DHT22;19510;54.486;9.046;2023-03-16T12:13:52;8.50;99.90
16838;DHT22;19510;54.486;9.046;2023-03-16T12:16:29;8.50;99.90
16838;DHT22;19510;54.486;9.046;2023-03-16T12:19:01;8.50;99.90
16838;DHT22;19510;54.486;9.046;2023-03-16T12:21:33;8.50;99.90
16838;DHT22;19510;54.486;9.046;2023-03-16T12:24:05;8.50;99.90
16838;DHT22;19510;54.486;9.046;2023-03-16T12:26:39;8.60;99.90
16838;DHT22;19510;54.486;9.046;2023-03-16T12:29:37;8.60;99.90
16838;DHT22;19510;54.486;9.046;2023-03-16T12:32:29;8.60;99.90
16838;DHT22;19510;54.486;9.046;2023-03-16T12:43:34;8.80;99.90
16838;DHT22;19510;54.486;9.046;2023-03-16T12:48:49;8.90;99.90
16838;DHT22;19510;54.486;9.046;2023-03-16T12:51:16;8.90;99.90
16838;DHT22;19510;54.486;9.046;2023-03-16T12:53:53;9.00;99.90
16838;DHT22;19510;54.486;9.046;2023-03-16T12:56:28;9.00;99.90
16838;DHT22;19510;54.486;9.046;2023-03-16T12:58:58;9.00;99.90
16838;DHT22;19510;54.486;9.046;2023-03-16T13:01:30;9.00;99.90
16838;DHT22;19510;54.486;9.046;2023-03-16T13:04:09;9.00;99.90
16838;DHT22;19510;54.486;9.046;2023-03-16T13:06:45;9.00;99.90
16838;DHT22;19510;54.486;9.046;2023-03-16T13:09:18;9.10;99.90
16838;DHT22;19510;54.486;9.046;2023-03-16T13:11:47;9.00;99.90
16838;DHT22;19510;54.486;9.046;2023-03-16T13:14:40;9.00;99.90
16838;DHT22;19510;54.486;9.046;2023-03-16T13:20:03;9.00;99.90
16838;DHT22;19510;54.486;9.046;2023-03-16T13:25:21;9.10;99.90
16838;DHT22;19510;54.486;9.046;2023-03-16T13:27:51;9.10;99.90
16838;DHT22;19510;54.486;9.046;2023-03-16T13:30:30;9.10;99.90
16838;DHT22;19510;54.486;9.046;2023-03-16T13:33:26;9.10;99.90
16838;DHT22;19510;54.486;9.046;2023-03-16T13:35:55;9.10;99.90
16838;DHT22;19510;54.486;9.046;2023-03-16T13:38:23;9.10;99.90
16838;DHT22;19510;54.486;9.046;2023-03-16T13:41:00;9.10;99.90
16838;DHT22;19510;54.486;9.046;2023-03-16T13:43:28;9.10;99.90
16838;DHT22;19510;54.486;9.046;2023-03-16T13:45:57;9.20;99.90
16838;DHT22;19510;54.486;9.046;2023-03-16T13:48:23;9.20;99.90
16838;DHT22;19510;54.486;9.046;2023-03-16T13:50:54;9.20;99.90
16838;DHT22;19510;54.486;9.046;2023-03-16T13:53:24;9.20;99.90
16838;DHT22;19510;54.486;9.046;2023-03-16T13:55:51;9.20;99.90
16838;DHT22;19510;54.486;9.046;2023-03-16T13:58:35;9.20;99.90
16838;DHT22;19510;54.486;9.046;2023-03-16T14:01:04;9.20;99.90
16838;DHT22;19510;54.486;9.046;2023-03-16T14:03:38;9.20;99.90
16838;DHT22;19510;54.486;9.046;2023-03-16T14:06:05;9.20;99.90
16838;DHT22;19510;54.486;9.046;2023-03-16T14:08:35;9.10;99.90
16838;DHT22;19510;54.486;9.046;2023-03-16T14:11:02;9.10;99.90
16838;DHT22;19510;54.486;9.046;2023-03-16T14:15:56;9.10;99.90
16838;DHT22;19510;54.486;9.046;2023-03-16T14:18:33;9.00;99.90
16838;DHT22;19510;54.486;9.046;2023-03-16T14:21:08;9.00;99.90
16838;DHT22;19510;54.486;9.046;2023-03-16T14:23:39;9.00;99.90
16838;DHT22;19510;54.486;9.046;2023-03-16T14:26:11;8.90;99.90
16838;DHT22;19510;54.486;9.046;2023-03-16T14:28:41;8.90;99.90
16838;DHT22;19510;54.486;9.046;2023-03-16T14:31:19;8.90;99.90
16838;DHT22;19510;54.486;9.046;2023-03-16T14:33:45;8.90;99.90
16838;DHT22;19510;54.486;9.046;2023-03-16T14:36:18;8.90;99.90
16838;DHT22;19510;54.486;9.046;2023-03-16T14:38:47;8.90;99.90
16838;DHT22;19510;54.486;9.046;2023-03-16T14:41:23;8.90;99.90
16838;DHT22;19510;54.486;9.046;2023-03-16T14:43:54;8.90;99.90
16838;DHT22;19510;54.486;9.046;2023-03-16T14:46:32;8.90;99.90
16838;DHT22;19510;54.486;9.046;2023-03-16T14:51:45;8.90;99.90
16838;DHT22;19510;54.486;9.046;2023-03-16T14:54:16;8.90;99.90
16838;DHT22;19510;54.486;9.046;2023-03-16T14:56:46;8.80;99.90
16838;DHT22;19510;54.486;9.046;2023-03-16T14:59:12;8.70;99.90
16838;DHT22;19510;54.486;9.046;2023-03-16T15:01:38;8.80;99.90
16838;DHT22;19510;54.486;9.046;2023-03-16T15:04:04;8.80;99.90
16838;DHT22;19510;54.486;9.046;2023-03-16T15:06:31;8.80;99.90
16838;DHT22;19510;54.486;9.046;2023-03-16T15:08:58;8.80;99.90
16838;DHT22;19510;54.486;9.046;2023-03-16T15:11:24;8.80;99.90
16838;DHT22;19510;54.486;9.046;2023-03-16T15:13:50;8.80;99.90
16838;DHT22;19510;54.486;9.046;2023-03-16T15:16:17;8.80;99.90
16838;DHT22;19510;54.486;9.046;2023-03-16T15:18:42;8.80;99.90
16838;DHT22;19510;54.486;9.046;2023-03-16T15:21:09;8.80;99.90
16838;DHT22;19510;54.486;9.046;2023-03-16T15:23:37;8.80;99.90
16838;DHT22;19510;54.486;9.046;2023-03-16T15:26:04;8.80;99.90
16838;DHT22;19510;54.486;9.046;2023-03-16T15:28:32;8.80;99.90
16838;DHT22;19510;54.486;9.046;2023-03-16T15:31:00;8.80;99.90
16838;DHT22;19510;54.486;9.046;2023-03-16T15:33:26;8.80;99.90
16838;DHT22;19510;54.486;9.046;2023-03-16T15:35:54;8.90;99.90
16838;DHT22;19510;54.486;9.046;2023-03-16T15:38:21;8.90;99.90
16838;DHT22;19510;54.486;9.046;2023-03-16T15:40:48;8.90;99.90
16838;DHT22;19510;54.486;9.046;2023-03-16T15:43:20;8.90;99.90
16838;DHT22;19510;54.486;9.046;2023-03-16T15:45:47;8.90;99.90
16838;DHT22;19510;54.486;9.046;2023-03-16T15:48:14;8.80;99.90
16838;DHT22;19510;54.486;9.046;2023-03-16T15:50:43;8.80;99.90
16838;DHT22;19510;54.486;9.046;2023-03-16T15:53:23;8.80;99.90
16838;DHT22;19510;54.486;9.046;2023-03-16T15:55:53;8.80;99.90
16838;DHT22;19510;54.486;9.046;2023-03-16T15:58:25;8.80;99.90
16838;DHT22;19510;54.486;9.046;2023-03-16T16:00:57;8.70;99.90
16838;DHT22;19510;54.486;9.046;2023-03-16T16:03:26;8.70;99.90
16838;DHT22;19510;54.486;9.046;2023-03-16T16:05:52;8.70;99.90
16838;DHT22;19510;54.486;9.046;2023-03-16T16:08:19;8.70;99.90
16838;DHT22;19510;54.486;9.046;2023-03-16T16:10:46;8.70;99.90
16838;DHT22;19510;54.486;9.046;2023-03-16T16:15:47;8.70;99.90
16838;DHT22;19510;54.486;9.046;2023-03-16T16:20:55;8.70;99.90
16838;DHT22;19510;54.486;9.046;2023-03-16T16:23:24;8.70;99.90
16838;DHT22;19510;54.486;9.046;2023-03-16T16:25:53;8.70;99.90
16838;DHT22;19510;54.486;9.046;2023-03-16T16:28:22;8.60;99.90
16838;DHT22;19510;54.486;9.046;2023-03-16T16:30:48;8.60;99.90
16838;DHT22;19510;54.486;9.046;2023-03-16T16:33:21;8.60;99.90
16838;DHT22;19510;54.486;9.046;2023-03-16T16:35:52;8.60;99.90
16838;DHT22;19510;54.486;9.046;2023-03-16T16:38:18;8.60;99.90
16838;DHT22;19510;54.486;9.046;2023-03-16T16:40:44;8.60;99.90
16838;DHT22;19510;54.486;9.046;2023-03-16T16:43:44;8.50;99.90
16838;DHT22;19510;54.486;9.046;2023-03-16T16:46:16;8.50;99.90
16838;DHT22;19510;54.486;9.046;2023-03-16T16:48:47;8.50;99.90
16838;DHT22;19510;54.486;9.046;2023-03-16T16:51:26;8.50;99.90
16838;DHT22;19510;54.486;9.046;2023-03-16T16:53:55;8.50;99.90
16838;DHT22;19510;54.486;9.046;2023-03-16T16:56:26;8.40;99.90
16838;DHT22;19510;54.486;9.046;2023-03-16T16:58:54;8.40;99.90
16838;DHT22;19510;54.486;9.046;2023-03-16T17:01:29;8.40;99.90
16838;DHT22;19510;54.486;9.046;2023-03-16T17:03:57;8.40;99.90
16838;DHT22;19510;54.486;9.046;2023-03-16T17:06:23;8.40;99.90
16838;DHT22;19510;54.486;9.046;2023-03-16T17:08:49;8.40;99.90
16838;DHT22;19510;54.486;9.046;2023-03-16T17:11:27;8.40;99.90
16838;DHT22;19510;54.486;9.046;2023-03-16T17:13:57;8.40;99.90
16838;DHT22;19510;54.486;9.046;2023-03-16T17:16:23;8.30;99.90
16838;DHT22;19510;54.486;9.046;2023-03-16T17:18:51;8.30;99.90
16838;DHT22;19510;54.486;9.046;2023-03-16T17:21:20;8.30;99.90
16838;DHT22;19510;54.486;9.046;2023-03-16T17:23:48;8.30;99.90
16838;DHT22;19510;54.486;9.046;2023-03-16T17:26:24;8.30;99.90
16838;DHT22;19510;54.486;9.046;2023-03-16T17:29:17;8.30;99.90
16838;DHT22;19510;54.486;9.046;2023-03-16T17:31:46;8.30;99.90
16838;DHT22;19510;54.486;9.046;2023-03-16T17:34:21;8.30;99.90
16838;DHT22;19510;54.486;9.046;2023-03-16T17:36:48;8.30;99.90
16838;DHT22;19510;54.486;9.046;2023-03-16T17:41:53;8.30;99.90
16838;DHT22;19510;54.486;9.046;2023-03-16T17:44:20;8.30;99.90
16838;DHT22;19510;54.486;9.046;2023-03-16T17:46:46;8.30;99.90
16838;DHT22;19510;54.486;9.046;2023-03-16T17:49:13;8.20;99.90
16838;DHT22;19510;54.486;9.046;2023-03-16T17:51:39;8.20;99.90
16838;DHT22;19510;54.486;9.046;2023-03-16T17:54:05;8.30;99.90
16838;DHT22;19510;54.486;9.046;2023-03-16T17:56:34;8.20;99.90
16838;DHT22;19510;54.486;9.046;2023-03-16T17:59:13;8.20;99.90
16838;DHT22;19510;54.486;9.046;2023-03-16T18:01:40;8.20;99.90
16838;DHT22;19510;54.486;9.046;2023-03-16T18:04:18;8.20;99.90
16838;DHT22;19510;54.486;9.046;2023-03-16T18:06:45;8.20;99.90
16838;DHT22;19510;54.486;9.046;2023-03-16T18:09:16;8.20;99.90
16838;DHT22;19510;54.486;9.046;2023-03-16T18:12:13;8.20;99.90
16838;DHT22;19510;54.486;9.046;2023-03-16T18:14:43;8.10;99.90
16838;DHT22;19510;54.486;9.046;2023-03-16T18:17:28;8.20;99.90
16838;DHT22;19510;54.486;9.046;2023-03-16T18:23:30;8.20;99.90
16838;DHT22;19510;54.486;9.046;2023-03-16T18:25:57;8.20;99.90
16838;DHT22;19510;54.486;9.046;2023-03-16T18:28:31;8.20;99.90
16838;DHT22;19510;54.486;9.046;2023-03-16T18:30:58;8.20;99.90
16838;DHT22;19510;54.486;9.046;2023-03-16T18:33:27;8.10;99.90
16838;DHT22;19510;54.486;9.046;2023-03-16T18:35:57;8.20;99.90
16838;DHT22;19510;54.486;9.046;2023-03-16T18:38:35;8.10;99.90
16838;DHT22;19510;54.486;9.046;2023-03-16T18:41:12;8.20;99.90
16838;DHT22;19510;54.486;9.046;2023-03-16T18:43:40;8.20;99.90
16838;DHT22;19510;54.486;9.046;2023-03-16T18:46:22;8.10;99.90
16838;DHT22;19510;54.486;9.046;2023-03-16T18:48:52;8.10;99.90
16838;DHT22;19510;54.486;9.046;2023-03-16T18:51:21;8.10;99.90
16838;DHT22;19510;54.486;9.046;2023-03-16T18:53:48;8.10;99.90
16838;DHT22;19510;54.486;9.046;2023-03-16T18:56:27;8.10;99.90
16838;DHT22;19510;54.486;9.046;2023-03-16T18:58:54;8.10;99.90
16838;DHT22;19510;54.486;9.046;2023-03-16T19:01:31;8.10;99.90
16838;DHT22;19510;54.486;9.046;2023-03-16T19:03:58;8.10;99.90
16838;DHT22;19510;54.486;9.046;2023-03-16T19:06:31;8.10;99.90
16838;DHT22;19510;54.486;9.046;2023-03-16T19:11:41;8.10;99.90
16838;DHT22;19510;54.486;9.046;2023-03-16T19:14:20;8.10;99.90
16838;DHT22;19510;54.486;9.046;2023-03-16T19:16:50;8.10;99.90
16838;DHT22;19510;54.486;9.046;2023-03-16T19:19:17;8.10;99.90
16838;DHT22;19510;54.486;9.046;2023-03-16T19:21:48;8.10;99.90
16838;DHT22;19510;54.486;9.046;2023-03-16T19:24:25;8.10;99.90
16838;DHT22;19510;54.486;9.046;2023-03-16T19:26:51;8.10;99.90
16838;DHT22;19510;54.486;9.046;2023-03-16T19:29:18;8.10;99.90
16838;DHT22;19510;54.486;9.046;2023-03-16T19:31:46;8.00;99.90
16838;DHT22;19510;54.486;9.046;2023-03-16T19:34:42;8.00;99.90
16838;DHT22;19510;54.486;9.046;2023-03-16T19:37:18;8.00;99.90
16838;DHT22;19510;54.486;9.046;2023-03-16T19:39:44;8.00;99.90
16838;DHT22;19510;54.486;9.046;2023-03-16T19:42:25;8.00;99.90
16838;DHT22;19510;54.486;9.046;2023-03-16T19:44:53;8.00;99.90
16838;DHT22;19510;54.486;9.046;2023-03-16T19:47:25;8.00;99.90
16838;DHT22;19510;54.486;9.046;2023-03-16T19:49:52;8.00;99.90
16838;DHT22;19510;54.486;9.046;2023-03-16T19:52:18;8.00;99.90
16838;DHT22;19510;54.486;9.046;2023-03-16T19:54:43;7.90;99.90
16838;DHT22;19510;54.486;9.046;2023-03-16T19:57:14;8.00;99.90
16838;DHT22;19510;54.486;9.046;2023-03-16T19:59:42;7.90;99.90
16838;DHT22;19510;54.486;9.046;2023-03-16T20:02:24;8.00;99.90
16838;DHT22;19510;54.486;9.046;2023-03-16T20:04:51;7.90;99.90
16838;DHT22;19510;54.486;9.046;2023-03-16T20:07:32;8.00;99.90
16838;DHT22;19510;54.486;9.046;2023-03-16T20:10:09;8.00;99.90
16838;DHT22;19510;54.486;9.046;2023-03-16T20:12:40;8.00;99.90
16838;DHT22;19510;54.486;9.046;2023-03-16T20:15:17;7.90;99.90
16838;DHT22;19510;54.486;9.046;2023-03-16T20:18:14;7.90;99.90
16838;DHT22;19510;54.486;9.046;2023-03-16T20:21:14;7.90;99.90
16838;DHT22;19510;54.486;9.046;2023-03-16T20:23:40;7.90;99.90
16838;DHT22;19510;54.486;9.046;2023-03-16T20:26:17;7.90;99.90
16838;DHT22;19510;54.486;9.046;2023-03-16T20:28:47;7.90;99.90
16838;DHT22;19510;54.486;9.046;2023-03-16T20:31:20;7.90;99.90
16838;DHT22;19510;54.486;9.046;2023-03-16T20:33:47;7.90;99.90
16838;DHT22;19510;54.486;9.046;2023-03-16T20:36:13;7.90;99.90
16838;DHT22;19510;54.486;9.046;2023-03-16T20:38:39;7.90;99.90
16838;DHT22;19510;54.486;9.046;2023-03-16T20:41:32;7.90;99.90
16838;DHT22;19510;54.486;9.046;2023-03-16T20:43:59;7.90;99.90
16838;DHT22;19510;54.486;9.046;2023-03-16T20:46:31;8.00;99.90
16838;DHT22;19510;54.486;9.046;2023-03-16T20:48:57;7.90;99.90
16838;DHT22;19510;54.486;9.046;2023-03-16T20:51:29;7.90;99.90
16838;DHT22;19510;54.486;9.046;2023-03-16T20:53:56;7.80;99.90
16838;DHT22;19510;54.486;9.046;2023-03-16T20:56:23;7.90;99.90
16838;DHT22;19510;54.486;9.046;2023-03-16T20:58:51;7.90;99.90
16838;DHT22;19510;54.486;9.046;2023-03-16T21:01:22;7.90;99.90
16838;DHT22;19510;54.486;9.046;2023-03-16T21:03:50;7.90;99.90
16838;DHT22;19510;54.486;9.046;2023-03-16T21:06:54;7.90;99.90
16838;DHT22;19510;54.486;9.046;2023-03-16T21:09:46;7.90;99.90
16838;DHT22;19510;54.486;9.046;2023-03-16T21:14:50;7.80;99.90
16838;DHT22;19510;54.486;9.046;2023-03-16T21:17:21;7.90;99.90
16838;DHT22;19510;54.486;9.046;2023-03-16T21:19:49;7.80;99.90
16838;DHT22;19510;54.486;9.046;2023-03-16T21:22:23;7.80;99.90
16838;DHT22;19510;54.486;9.046;2023-03-16T21:24:49;7.80;99.90
16838;DHT22;19510;54.486;9.046;2023-03-16T21:27:22;7.80;99.90
16838;DHT22;19510;54.486;9.046;2023-03-16T21:29:51;7.90;99.90
16838;DHT22;19510;54.486;9.046;2023-03-16T21:32:20;7.90;99.90
16838;DHT22;19510;54.486;9.046;2023-03-16T21:34:46;7.90;99.90
16838;DHT22;19510;54.486;9.046;2023-03-16T21:37:14;7.90;99.90
16838;DHT22;19510;54.486;9.046;2023-03-16T21:39:39;7.90;99.90
16838;DHT22;19510;54.486;9.046;2023-03-16T21:42:06;7.90;99.90
16838;DHT22;19510;54.486;9.046;2023-03-16T21:44:32;7.80;99.90
16838;DHT22;19510;54.486;9.046;2023-03-16T21:47:00;7.80;99.90
16838;DHT22;19510;54.486;9.046;2023-03-16T21:49:26;7.80;99.90
16838;DHT22;19510;54.486;9.046;2023-03-16T21:51:52;7.80;99.90
16838;DHT22;19510;54.486;9.046;2023-03-16T21:54:18;7.80;99.90
16838;DHT22;19510;54.486;9.046;2023-03-16T21:56:45;7.80;99.90
16838;DHT22;19510;54.486;9.046;2023-03-16T21:59:12;7.90;99.90
16838;DHT22;19510;54.486;9.046;2023-03-16T22:01:38;7.80;99.90
16838;DHT22;19510;54.486;9.046;2023-03-16T22:04:14;7.80;99.90
16838;DHT22;19510;54.486;9.046;2023-03-16T22:06:42;7.80;99.90
16838;DHT22;19510;54.486;9.046;2023-03-16T22:09:19;7.80;99.90
16838;DHT22;19510;54.486;9.046;2023-03-16T22:11:45;7.80;99.90
16838;DHT22;19510;54.486;9.046;2023-03-16T22:14:12;7.80;99.90
16838;DHT22;19510;54.486;9.046;2023-03-16T22:16:38;7.70;99.90
16838;DHT22;19510;54.486;9.046;2023-03-16T22:19:07;7.70;99.90
16838;DHT22;19510;54.486;9.046;2023-03-16T22:21:45;7.70;99.90
16838;DHT22;19510;54.486;9.046;2023-03-16T22:24:17;7.70;99.90
16838;DHT22;19510;54.486;9.046;2023-03-16T22:26:43;7.60;99.90
16838;DHT22;19510;54.486;9.046;2023-03-16T22:29:29;7.60;99.90
16838;DHT22;19510;54.486;9.046;2023-03-16T22:32:06;7.60;99.90
16838;DHT22;19510;54.486;9.046;2023-03-16T22:34:42;7.60;99.90
16838;DHT22;19510;54.486;9.046;2023-03-16T22:37:12;7.60;99.90
16838;DHT22;19510;54.486;9.046;2023-03-16T22:39:40;7.60;99.90
16838;DHT22;19510;54.486;9.046;2023-03-16T22:42:36;7.60;99.90
16838;DHT22;19510;54.486;9.046;2023-03-16T22:45:17;7.50;99.90
16838;DHT22;19510;54.486;9.046;2023-03-16T22:47:45;7.50;99.90
16838;DHT22;19510;54.486;9.046;2023-03-16T22:50:16;7.50;99.90
16838;DHT22;19510;54.486;9.046;2023-03-16T22:52:44;7.50;99.90
16838;DHT22;19510;54.486;9.046;2023-03-16T22:55:19;7.50;99.90
16838;DHT22;19510;54.486;9.046;2023-03-16T22:57:49;7.50;99.90
16838;DHT22;19510;54.486;9.046;2023-03-16T23:00:16;7.50;99.90
16838;DHT22;19510;54.486;9.046;2023-03-16T23:02:49;7.40;99.90
16838;DHT22;19510;54.486;9.046;2023-03-16T23:05:20;7.40;99.90
16838;DHT22;19510;54.486;9.046;2023-03-16T23:07:47;7.40;99.90
16838;DHT22;19510;54.486;9.046;2023-03-16T23:10:17;7.40;99.90
16838;DHT22;19510;54.486;9.046;2023-03-16T23:12:44;7.40;99.90
16838;DHT22;19510;54.486;9.046;2023-03-16T23:15:16;7.40;99.90
16838;DHT22;19510;54.486;9.046;2023-03-16T23:17:42;7.40;99.90
16838;DHT22;19510;54.486;9.046;2023-03-16T23:20:23;7.30;99.90
16838;DHT22;19510;54.486;9.046;2023-03-16T23:22:49;7.30;99.90
16838;DHT22;19510;54.486;9.046;2023-03-16T23:25:16;7.30;99.90
16838;DHT22;19510;54.486;9.046;2023-03-16T23:27:42;7.30;99.90
16838;DHT22;19510;54.486;9.046;2023-03-16T23:30:24;7.30;99.90
16838;DHT22;19510;54.486;9.046;2023-03-16T23:32:51;7.30;99.90
16838;DHT22;19510;54.486;9.046;2023-03-16T23:35:21;7.20;99.90
16838;DHT22;19510;54.486;9.046;2023-03-16T23:37:47;7.20;99.90
16838;DHT22;19510;54.486;9.046;2023-03-16T23:40:14;7.20;99.90
16838;DHT22;19510;54.486;9.046;2023-03-16T23:42:41;7.20;99.90
16838;DHT22;19510;54.486;9.046;2023-03-16T23:45:10;7.10;99.90
16838;DHT22;19510;54.486;9.046;2023-03-16T23:47:40;7.10;99.90
16838;DHT22;19510;54.486;9.046;2023-03-16T23:50:10;7.10;99.90
16838;DHT22;19510;54.486;9.046;2023-03-16T23:52:38;7.10;99.90
16838;DHT22;19510;54.486;9.046;2023-03-16T23:55:11;7.00;99.90
16838;DHT22;19510;54.486;9.046;2023-03-16T23:57:38;7.00;99.90
